Time;durP1;ratioP1;P1;durP2;ratioP2;P2;SDS_P1;SDS_P2;PMS_P1;PMS_P2;Temp;Humidity;BMP_temperature;BMP_pressure;BME280_temperature;BME280_humidity;BME280_pressure;Samples;Min_cycle;Max_cycle;Signal;HPM_P1;HPM_P2
2022/04/12 00:00:25;;;;;;;8.03;4.13;;;;;;;;;;4954263;28;20645;-86
2022/04/12 00:03:30;;;;;;;9.47;4.03;;;;;;;;;;4965158;28;21093;-84
2022/04/12 00:06:36;;;;;;;6.70;4.80;;;;;;;;;;4965569;28;20539;-84
2022/04/12 00:09:40;;;;;;;6.53;4.77;;;;;;;;;;4945583;28;21141;-84
2022/04/12 00:12:44;;;;;;;7.07;4.47;;;;;;;;;;4967732;28;20650;-84
2022/04/12 00:15:49;;;;;;;6.67;4.67;;;;;;;;;;4935106;28;20199;-84
2022/04/12 00:19:05;;;;;;;6.40;4.70;;;;;;;;;;4975656;28;20598;-84
2022/04/12 00:22:09;;;;;;;9.10;4.37;;;;;;;;;;4964837;28;20590;-84
2022/04/12 00:25:14;;;;;;;6.67;5.10;;;;;;;;;;4975821;28;20586;-84
2022/04/12 00:28:18;;;;;;;8.57;5.63;;;;;;;;;;4953276;28;20591;-84
2022/04/12 00:31:22;;;;;;;8.07;5.70;;;;;;;;;;4964647;28;20626;-84
2022/04/12 00:34:26;;;;;;;7.43;5.10;;;;;;;;;;4939949;28;20633;-84
2022/04/12 00:37:30;;;;;;;7.13;5.13;;;;;;;;;;4953619;28;20579;-84
2022/04/12 00:40:35;;;;;;;10.00;5.57;;;;;;;;;;4953575;28;21195;-84
2022/04/12 00:43:39;;;;;;;7.67;5.57;;;;;;;;;;4964991;28;20543;-84
2022/04/12 00:46:43;;;;;;;8.27;5.30;;;;;;;;;;4964856;28;20547;-84
2022/04/12 00:49:47;;;;;;;7.20;5.30;;;;;;;;;;4964448;28;20542;-84
2022/04/12 00:52:53;;;;;;;7.17;5.37;;;;;;;;;;4964164;28;20590;-84
2022/04/12 00:55:58;;;;;;;7.17;5.20;;;;;;;;;;4953460;28;20542;-84
2022/04/12 00:59:02;;;;;;;6.23;4.73;;;;;;;;;;4963958;28;20622;-84
2022/04/12 01:02:07;;;;;;;7.93;4.97;;;;;;;;;;4964462;28;20594;-84
2022/04/12 01:05:11;;;;;;;7.43;5.10;;;;;;;;;;4964139;28;20543;-84
2022/04/12 01:08:16;;;;;;;7.23;5.27;;;;;;;;;;4952674;28;20602;-84
2022/04/12 01:11:20;;;;;;;8.43;4.83;;;;;;;;;;4952950;28;20625;-84
2022/04/12 01:14:25;;;;;;;7.43;5.20;;;;;;;;;;4952543;28;21220;-84
2022/04/12 01:17:29;;;;;;;7.30;5.50;;;;;;;;;;4963766;28;20586;-84
2022/04/12 01:20:34;;;;;;;6.90;4.77;;;;;;;;;;4974668;28;20654;-84
2022/04/12 01:23:47;;;;;;;11.93;5.43;;;;;;;;;;4963566;28;20590;-84
2022/04/12 01:26:51;;;;;;;6.27;4.90;;;;;;;;;;4952533;28;20613;-84
2022/04/12 01:29:57;;;;;;;10.00;5.50;;;;;;;;;;4955289;28;20626;-84
2022/04/12 01:33:01;;;;;;;8.13;5.70;;;;;;;;;;4934336;28;20559;-84
2022/04/12 01:36:05;;;;;;;8.00;5.43;;;;;;;;;;4952781;28;20542;-86
2022/04/12 01:39:09;;;;;;;8.43;5.57;;;;;;;;;;4963260;28;20586;-86
2022/04/12 01:42:13;;;;;;;7.37;5.07;;;;;;;;;;4962817;28;20625;-86
2022/04/12 01:45:17;;;;;;;7.10;5.50;;;;;;;;;;4952683;28;21156;-86
2022/04/12 01:48:22;;;;;;;7.13;4.97;;;;;;;;;;4954518;28;20574;-86
2022/04/12 01:51:26;;;;;;;6.70;4.93;;;;;;;;;;4962877;28;21017;-86
2022/04/12 01:54:30;;;;;;;6.27;4.90;;;;;;;;;;4952395;28;20598;-86
2022/04/12 01:57:34;;;;;;;8.83;5.53;;;;;;;;;;4951989;28;20590;-86
2022/04/12 02:00:38;;;;;;;9.70;5.37;;;;;;;;;;4951630;28;20653;-85
2022/04/12 02:03:42;;;;;;;7.73;5.57;;;;;;;;;;4962885;28;20597;-86
2022/04/12 02:06:47;;;;;;;10.00;6.73;;;;;;;;;;4951797;28;20586;-86
2022/04/12 02:09:50;;;;;;;8.07;6.30;;;;;;;;;;4973698;28;20807;-86
2022/04/12 02:12:54;;;;;;;9.40;6.40;;;;;;;;;;4951616;28;20570;-85
2022/04/12 02:15:58;;;;;;;10.07;6.77;;;;;;;;;;4951756;28;21164;-86
2022/04/12 02:19:03;;;;;;;8.37;5.20;;;;;;;;;;4951918;28;21156;-86
2022/04/12 02:22:07;;;;;;;8.30;6.23;;;;;;;;;;4951433;28;20625;-85
2022/04/12 02:25:12;;;;;;;9.60;6.40;;;;;;;;;;4951735;28;20578;-86
2022/04/12 02:28:16;;;;;;;8.70;6.10;;;;;;;;;;4973505;28;20622;-85
2022/04/12 02:31:20;;;;;;;7.90;5.63;;;;;;;;;;4951496;28;20629;-86
2022/04/12 02:34:24;;;;;;;8.93;5.53;;;;;;;;;;4962490;28;20630;-86
2022/04/12 02:37:29;;;;;;;7.87;5.67;;;;;;;;;;4962724;28;20598;-86
2022/04/12 02:40:33;;;;;;;8.00;5.40;;;;;;;;;;4962424;28;20650;-85
2022/04/12 02:43:37;;;;;;;9.07;5.97;;;;;;;;;;4951553;28;20586;-86
2022/04/12 02:46:41;;;;;;;8.50;5.70;;;;;;;;;;4967247;28;21057;-86
2022/04/12 02:49:45;;;;;;;7.57;5.50;;;;;;;;;;4966382;28;20610;-86
2022/04/12 02:52:49;;;;;;;12.90;6.90;;;;;;;;;;4966508;28;20582;-86
2022/04/12 02:55:53;;;;;;;10.43;7.33;;;;;;;;;;4955802;28;20554;-86
2022/04/12 02:58:57;;;;;;;10.17;6.60;;;;;;;;;;4958480;29;20544;-86
2022/04/12 03:02:02;;;;;;;8.93;6.67;;;;;;;;;;4957533;28;20625;-85
2022/04/12 03:05:06;;;;;;;10.07;7.30;;;;;;;;;;4977560;28;20542;-86
2022/04/12 03:08:11;;;;;;;9.77;6.70;;;;;;;;;;4955506;28;20550;-86
2022/04/12 03:11:15;;;;;;;9.53;6.70;;;;;;;;;;4965246;28;21251;-84
2022/04/12 03:14:19;;;;;;;10.73;6.53;;;;;;;;;;4955271;28;20594;-84
2022/04/12 03:17:23;;;;;;;13.20;6.57;;;;;;;;;;4966190;28;20555;-84
2022/04/12 03:20:27;;;;;;;9.83;6.83;;;;;;;;;;4977254;28;20622;-84
2022/04/12 03:23:31;;;;;;;8.27;5.97;;;;;;;;;;4965672;28;20590;-84
2022/04/12 03:26:35;;;;;;;7.10;5.83;;;;;;;;;;4976689;28;21158;-84
2022/04/12 03:29:40;;;;;;;7.53;5.50;;;;;;;;;;4965500;28;20590;-84
2022/04/12 03:32:44;;;;;;;7.70;5.47;;;;;;;;;;4965627;28;20973;-84
2022/04/12 03:35:48;;;;;;;8.43;6.10;;;;;;;;;;4976537;28;20645;-84
2022/04/12 03:38:52;;;;;;;8.77;5.87;;;;;;;;;;4965591;28;20590;-84
2022/04/12 03:41:56;;;;;;;7.70;5.87;;;;;;;;;;4965078;28;20649;-84
2022/04/12 03:45:01;;;;;;;8.50;6.40;;;;;;;;;;4965216;28;20622;-84
2022/04/12 03:48:06;;;;;;;10.23;6.43;;;;;;;;;;4954481;28;20555;-84
2022/04/12 03:51:12;;;;;;;9.40;6.63;;;;;;;;;;4964913;28;20649;-84
2022/04/12 03:54:16;;;;;;;7.73;5.53;;;;;;;;;;4972597;28;20634;-84
2022/04/12 03:57:20;;;;;;;7.33;5.83;;;;;;;;;;4965074;28;20590;-84
2022/04/12 04:00:24;;;;;;;8.37;6.17;;;;;;;;;;4976115;28;20656;-84
2022/04/12 04:03:29;;;;;;;8.23;6.33;;;;;;;;;;4965033;28;20590;-84
2022/04/12 04:06:33;;;;;;;7.93;5.80;;;;;;;;;;4965389;28;20875;-84
2022/04/12 04:09:37;;;;;;;9.27;6.37;;;;;;;;;;4965595;28;21077;-86
2022/04/12 04:12:42;;;;;;;8.87;5.73;;;;;;;;;;4964698;28;20597;-86
2022/04/12 04:15:46;;;;;;;8.93;5.67;;;;;;;;;;4976449;28;20598;-86
2022/04/12 04:18:50;;;;;;;9.13;5.47;;;;;;;;;;4954038;28;20623;-86
2022/04/12 04:21:55;;;;;;;10.17;5.90;;;;;;;;;;4964687;28;20649;-86
2022/04/12 04:24:59;;;;;;;11.97;5.63;;;;;;;;;;4954298;28;21152;-86
2022/04/12 04:28:05;;;;;;;10.13;6.17;;;;;;;;;;4954066;28;20539;-86
2022/04/12 04:31:10;;;;;;;7.50;5.70;;;;;;;;;;4953176;28;20641;-88
2022/04/12 04:34:14;;;;;;;9.60;6.00;;;;;;;;;;4953602;28;20973;-88
2022/04/12 04:37:18;;;;;;;8.80;5.70;;;;;;;;;;4953738;28;20594;-91
2022/04/12 04:40:23;;;;;;;6.40;5.30;;;;;;;;;;4975657;28;21022;-88
2022/04/12 04:43:28;;;;;;;8.63;5.50;;;;;;;;;;4945689;29;20555;-88
2022/04/12 04:46:32;;;;;;;9.87;7.33;;;;;;;;;;4945598;28;21070;-87
2022/04/12 04:50:01;;;;;;;13.77;8.80;;;;;;;;;;4964627;28;20555;-88
2022/04/12 04:53:10;;;;;;;10.60;7.07;;;;;;;;;;4964181;28;20598;-86
2022/04/12 04:56:16;;;;;;;10.73;6.67;;;;;;;;;;4963977;28;20586;-86
2022/04/12 04:59:31;;;;;;;10.20;6.27;;;;;;;;;;4964266;28;20621;-86
2022/04/12 05:02:38;;;;;;;8.70;5.60;;;;;;;;;;4953813;28;20598;-86
2022/04/12 05:05:42;;;;;;;11.13;6.77;;;;;;;;;;4954564;28;20550;-86
2022/04/12 05:08:46;;;;;;;8.70;6.03;;;;;;;;;;4952952;28;20606;-86
2022/04/12 05:11:50;;;;;;;10.23;7.37;;;;;;;;;;4974504;28;20649;-86
2022/04/12 05:14:54;;;;;;;8.17;6.40;;;;;;;;;;4934085;29;21157;-86
2022/04/12 05:17:59;;;;;;;8.67;6.13;;;;;;;;;;4957485;28;20586;-86
2022/04/12 05:21:03;;;;;;;11.23;6.73;;;;;;;;;;4964120;28;20656;-86
2022/04/12 05:24:07;;;;;;;10.37;6.60;;;;;;;;;;4953003;28;20554;-86
2022/04/12 05:27:12;;;;;;;16.47;9.67;;;;;;;;;;4963792;28;20594;-86
2022/04/12 05:30:16;;;;;;;21.80;11.93;;;;;;;;;;4952362;28;20637;-86
2022/04/12 05:33:21;;;;;;;12.87;9.87;;;;;;;;;;4950379;28;20629;-86
2022/04/12 05:36:25;;;;;;;11.23;7.93;;;;;;;;;;4956996;28;20670;-86
2022/04/12 05:39:29;;;;;;;10.83;6.10;;;;;;;;;;4944457;29;21071;-86
2022/04/12 05:42:33;;;;;;;9.07;5.07;;;;;;;;;;4946032;28;20594;-86
2022/04/12 05:45:37;;;;;;;9.60;5.10;;;;;;;;;;4974645;28;20198;-86
2022/04/12 05:48:41;;;;;;;5.43;4.60;;;;;;;;;;4963588;28;20183;-86
2022/04/12 05:51:45;;;;;;;9.53;4.90;;;;;;;;;;4963139;28;20218;-86
2022/04/12 05:54:49;;;;;;;6.70;4.63;;;;;;;;;;4963187;28;20215;-86
2022/04/12 05:57:55;;;;;;;4.93;4.30;;;;;;;;;;4963420;28;20186;-86
2022/04/12 06:00:58;;;;;;;4.97;4.40;;;;;;;;;;4962894;28;20226;-86
2022/04/12 06:04:03;;;;;;;5.77;4.50;;;;;;;;;;4970788;28;20206;-86
2022/04/12 06:07:07;;;;;;;7.30;5.10;;;;;;;;;;4959371;28;20182;-86
2022/04/12 06:10:13;;;;;;;5.33;4.07;;;;;;;;;;4943948;28;20214;-86
2022/04/12 06:13:17;;;;;;;5.30;4.37;;;;;;;;;;4944188;29;20184;-86
2022/04/12 06:16:21;;;;;;;7.20;4.30;;;;;;;;;;4933145;29;20203;-86
2022/04/12 06:19:24;;;;;;;6.57;3.97;;;;;;;;;;4944202;29;20180;-86
2022/04/12 06:22:29;;;;;;;5.47;3.97;;;;;;;;;;4943863;29;20180;-86
2022/04/12 06:25:32;;;;;;;5.90;4.23;;;;;;;;;;4954732;29;20523;-86
2022/04/12 06:28:37;;;;;;;5.43;3.90;;;;;;;;;;4933075;29;20516;-86
2022/04/12 06:31:41;;;;;;;4.77;4.10;;;;;;;;;;4954664;28;20222;-86
2022/04/12 06:34:45;;;;;;;6.00;4.37;;;;;;;;;;4943815;29;20208;-86
2022/04/12 06:37:53;;;;;;;4.63;3.77;;;;;;;;;;4932862;29;20183;-86
2022/04/12 06:40:57;;;;;;;8.47;5.53;;;;;;;;;;4932647;29;20570;-86
2022/04/12 06:44:02;;;;;;;4.90;3.93;;;;;;;;;;4954708;29;20183;-86
2022/04/12 06:47:06;;;;;;;5.77;4.23;;;;;;;;;;4932707;29;20616;-84
2022/04/12 06:50:11;;;;;;;7.57;4.00;;;;;;;;;;4932476;28;20219;-85
2022/04/12 06:53:15;;;;;;;10.27;5.07;;;;;;;;;;4954902;29;20183;-84
2022/04/12 06:56:19;;;;;;;8.27;4.13;;;;;;;;;;4932859;29;20215;-84
2022/04/12 06:59:25;;;;;;;6.60;3.80;;;;;;;;;;4943584;29;20211;-84
2022/04/12 07:02:29;;;;;;;6.37;4.50;;;;;;;;;;5002405;23;20229;-86
2022/04/12 07:05:33;;;;;;;6.80;4.23;;;;;;;;;;4980275;28;20194;-86
2022/04/12 07:08:37;;;;;;;7.20;4.27;;;;;;;;;;4951438;28;20203;-86
2022/04/12 07:11:41;;;;;;;5.83;4.37;;;;;;;;;;4943239;28;20562;-86
2022/04/12 07:14:45;;;;;;;8.10;4.80;;;;;;;;;;4956889;28;20593;-86
2022/04/12 07:17:49;;;;;;;8.07;3.80;;;;;;;;;;4962564;28;20189;-87
2022/04/12 07:20:55;;;;;;;4.47;3.30;;;;;;;;;;4954167;29;20223;-86
2022/04/12 07:23:59;;;;;;;4.50;3.20;;;;;;;;;;4961298;28;20187;-86
2022/04/12 07:27:03;;;;;;;11.90;6.77;;;;;;;;;;4961791;28;20186;-86
2022/04/12 07:30:08;;;;;;;5.83;3.57;;;;;;;;;;4973183;28;20194;-86
2022/04/12 07:33:12;;;;;;;4.43;3.33;;;;;;;;;;4965643;28;20637;-87
2022/04/12 07:36:16;;;;;;;7.97;2.80;;;;;;;;;;4965132;28;20215;-87
2022/04/12 07:39:21;;;;;;;5.90;4.23;;;;;;;;;;4946220;29;20543;-87
2022/04/12 07:42:25;;;;;;;4.37;3.33;;;;;;;;;;4965507;28;20222;-87
2022/04/12 07:45:29;;;;;;;6.00;3.33;;;;;;;;;;4939109;28;20183;-86
2022/04/12 07:48:33;;;;;;;3.67;2.70;;;;;;;;;;4976328;28;20199;-87
2022/04/12 07:51:38;;;;;;;5.20;4.00;;;;;;;;;;4965249;28;20214;-87
2022/04/12 07:54:42;;;;;;;3.50;2.87;;;;;;;;;;4965028;28;20199;-86
2022/04/12 07:57:46;;;;;;;5.17;2.50;;;;;;;;;;4977082;28;20187;-87
2022/04/12 08:00:51;;;;;;;7.53;2.83;;;;;;;;;;4976194;28;20226;-86
2022/04/12 08:03:55;;;;;;;4.00;3.20;;;;;;;;;;4975991;28;20199;-87
2022/04/12 08:06:59;;;;;;;5.87;3.07;;;;;;;;;;4965172;28;20622;-86
2022/04/12 08:10:03;;;;;;;4.87;3.03;;;;;;;;;;4964953;28;20195;-87
2022/04/12 08:13:08;;;;;;;3.50;3.00;;;;;;;;;;4957883;28;20191;-86
2022/04/12 08:16:15;;;;;;;3.37;2.33;;;;;;;;;;4945478;29;20552;-88
2022/04/12 08:19:19;;;;;;;8.73;2.97;;;;;;;;;;4953535;28;20195;-87
2022/04/12 08:22:23;;;;;;;4.93;2.63;;;;;;;;;;4956647;28;20226;-87
2022/04/12 08:25:28;;;;;;;4.77;2.90;;;;;;;;;;4964852;28;20178;-87
2022/04/12 08:28:32;;;;;;;3.37;2.60;;;;;;;;;;4964446;28;20650;-87
2022/04/12 08:31:36;;;;;;;3.53;2.40;;;;;;;;;;4945647;29;20226;-87
2022/04/12 08:34:40;;;;;;;3.70;2.33;;;;;;;;;;4953127;28;20187;-87
2022/04/12 08:37:44;;;;;;;3.63;2.60;;;;;;;;;;4975382;28;20194;-87
2022/04/12 08:40:53;;;;;;;4.47;3.00;;;;;;;;;;4964190;28;20230;-87
2022/04/12 08:43:59;;;;;;;4.33;2.47;;;;;;;;;;4964606;28;20532;-87
2022/04/12 08:47:06;;;;;;;5.23;2.73;;;;;;;;;;4970470;28;20186;-87
2022/04/12 08:50:11;;;;;;;7.83;2.30;;;;;;;;;;4975880;28;20662;-88
2022/04/12 08:53:16;;;;;;;4.27;2.40;;;;;;;;;;4964405;28;20191;-87
2022/04/12 08:56:21;;;;;;;4.97;2.70;;;;;;;;;;4963779;28;20608;-88
2022/04/12 08:59:27;;;;;;;3.00;2.13;;;;;;;;;;4975543;28;20183;-87
2022/04/12 09:02:32;;;;;;;4.23;2.70;;;;;;;;;;4975172;28;20230;-87
2022/04/12 09:05:36;;;;;;;3.67;2.37;;;;;;;;;;4952274;28;20182;-87
2022/04/12 09:08:40;;;;;;;3.13;2.30;;;;;;;;;;4955951;29;20184;-88
2022/04/12 09:11:56;;;;;;;4.03;2.20;;;;;;;;;;4961927;28;20218;-87
2022/04/12 09:15:02;;;;;;;5.87;2.10;;;;;;;;;;4966398;28;20540;-88
2022/04/12 09:18:09;;;;;;;2.20;1.90;;;;;;;;;;4944269;28;20183;-87
2022/04/12 09:21:20;;;;;;;3.57;2.00;;;;;;;;;;4952517;28;20222;-88
2022/04/12 09:24:24;;;;;;;4.63;2.10;;;;;;;;;;4975056;28;20199;-88
2022/04/12 09:27:30;;;;;;;2.73;1.80;;;;;;;;;;4963143;28;20186;-88
2022/04/12 09:30:34;;;;;;;2.33;1.87;;;;;;;;;;4963346;28;20182;-88
2022/04/12 09:33:39;;;;;;;2.83;2.33;;;;;;;;;;4950178;28;20191;-87
2022/04/12 09:36:43;;;;;;;3.07;2.17;;;;;;;;;;4963251;28;20563;-88
2022/04/12 09:39:59;;;;;;;3.73;2.20;;;;;;;;;;4955050;29;20195;-88
2022/04/12 09:43:11;;;;;;;3.67;1.93;;;;;;;;;;4944492;29;20528;-88
2022/04/12 09:46:16;;;;;;;2.60;2.10;;;;;;;;;;4944399;28;20183;-88
2022/04/12 09:49:19;;;;;;;4.23;2.20;;;;;;;;;;4943959;29;20659;-88
2022/04/12 09:52:24;;;;;;;4.53;1.80;;;;;;;;;;4955147;28;20567;-88
2022/04/12 09:55:45;;;;;;;2.20;1.93;;;;;;;;;;4943933;29;20203;-88
2022/04/12 09:58:53;;;;;;;4.77;1.83;;;;;;;;;;4966021;28;20634;-88
2022/04/12 10:01:57;;;;;;;2.87;1.80;;;;;;;;;;4954811;29;20239;-88
2022/04/12 10:05:03;;;;;;;4.13;2.10;;;;;;;;;;4944183;28;20184;-88
2022/04/12 10:08:14;;;;;;;4.10;1.90;;;;;;;;;;4958763;28;20191;-88
2022/04/12 10:11:18;;;;;;;1.97;1.60;;;;;;;;;;4956592;28;20226;-88
2022/04/12 10:14:23;;;;;;;2.53;1.70;;;;;;;;;;4963089;28;20191;-87
2022/04/12 10:17:27;;;;;;;1.70;1.60;;;;;;;;;;4954408;29;20219;-88
2022/04/12 10:20:31;;;;;;;2.37;1.60;;;;;;;;;;4943909;28;20520;-88
2022/04/12 10:23:36;;;;;;;2.30;1.83;;;;;;;;;;4962984;28;20183;-88
2022/04/12 10:26:44;;;;;;;3.20;1.90;;;;;;;;;;4955530;28;20183;-87
2022/04/12 10:30:27;;;;;;;2.63;1.67;;;;;;;;;;4963035;28;20638;-87
2022/04/12 10:33:33;;;;;;;2.27;1.67;;;;;;;;;;4951605;28;20203;-86
2022/04/12 10:37:04;;;;;;;4.13;1.60;;;;;;;;;;4965328;28;20227;-86
2022/04/12 10:40:10;;;;;;;2.03;1.50;;;;;;;;;;4963358;28;20203;-87
2022/04/12 10:43:21;;;;;;;3.60;1.70;;;;;;;;;;4959708;28;20195;-87
2022/04/12 10:46:45;;;;;;;1.73;1.20;;;;;;;;;;4961894;28;20190;-86
2022/04/12 10:50:06;;;;;;;2.30;1.60;;;;;;;;;;4962353;28;20190;-88
2022/04/12 10:53:10;;;;;;;2.73;1.40;;;;;;;;;;4963180;28;20519;-87
2022/04/12 10:56:16;;;;;;;2.53;1.73;;;;;;;;;;4961754;28;20207;-87
2022/04/12 10:59:40;;;;;;;12.13;2.07;;;;;;;;;;4962807;28;20535;-88
2022/04/12 11:02:46;;;;;;;3.47;1.97;;;;;;;;;;4970414;28;20207;-89
2022/04/12 11:05:53;;;;;;;3.77;1.77;;;;;;;;;;4964240;28;20542;-87
2022/04/12 11:09:11;;;;;;;2.30;1.70;;;;;;;;;;4970054;28;20187;-88
2022/04/12 11:12:15;;;;;;;5.47;1.87;;;;;;;;;;4966688;28;20222;-88
2022/04/12 11:15:29;;;;;;;3.03;1.80;;;;;;;;;;4966390;28;20195;-88
2022/04/12 11:18:52;;;;;;;3.67;2.10;;;;;;;;;;4976569;28;20191;-88
2022/04/12 11:21:59;;;;;;;5.20;2.13;;;;;;;;;;4946582;29;20227;-88
2022/04/12 11:25:16;;;;;;;4.00;2.43;;;;;;;;;;4954088;29;20200;-88
2022/04/12 11:28:24;;;;;;;3.77;2.40;;;;;;;;;;4959037;29;20516;-89
2022/04/12 11:31:28;;;;;;;2.70;2.13;;;;;;;;;;4963999;28;20214;-88
2022/04/12 11:34:35;;;;;;;4.83;2.20;;;;;;;;;;4977401;28;20186;-88
2022/04/12 11:37:40;;;;;;;4.37;2.20;;;;;;;;;;4965373;28;20206;-88
2022/04/12 11:40:45;;;;;;;4.00;2.27;;;;;;;;;;4953996;28;20214;-88
2022/04/12 11:43:59;;;;;;;7.33;2.70;;;;;;;;;;4966036;28;20626;-89
2022/04/12 11:47:05;;;;;;;5.73;2.97;;;;;;;;;;4965123;28;20191;-88
2022/04/12 11:50:17;;;;;;;4.03;2.53;;;;;;;;;;4965433;28;20198;-89
2022/04/12 11:53:23;;;;;;;2.97;2.10;;;;;;;;;;4968499;28;20195;-89
2022/04/12 11:56:28;;;;;;;3.77;2.30;;;;;;;;;;4957523;28;20219;-89
2022/04/12 11:59:44;;;;;;;6.07;2.90;;;;;;;;;;4965351;28;20174;-88
2022/04/12 12:02:49;;;;;;;4.10;2.93;;;;;;;;;;4957038;28;20318;-88
2022/04/12 12:05:56;;;;;;;4.20;3.23;;;;;;;;;;4952705;28;20195;-88
2022/04/12 12:09:00;;;;;;;4.40;2.77;;;;;;;;;;4965640;28;20184;-88
2022/04/12 12:12:11;;;;;;;4.63;3.43;;;;;;;;;;4964719;28;20214;-88
2022/04/12 12:15:28;;;;;;;4.20;2.97;;;;;;;;;;4964656;28;20195;-88
2022/04/12 12:18:39;;;;;;;3.37;2.60;;;;;;;;;;4964956;28;20204;-88
2022/04/12 12:21:44;;;;;;;3.67;2.67;;;;;;;;;;4964736;28;20219;-88
2022/04/12 12:24:54;;;;;;;4.67;3.40;;;;;;;;;;4945885;29;20188;-88
2022/04/12 12:27:58;;;;;;;3.70;3.30;;;;;;;;;;4945759;29;20664;-88
2022/04/12 12:31:04;;;;;;;4.77;3.30;;;;;;;;;;4947853;28;21801;-88
2022/04/12 12:34:08;;;;;;;5.80;3.57;;;;;;;;;;4964711;28;20183;-88
2022/04/12 12:37:12;;;;;;;4.70;4.13;;;;;;;;;;4964864;28;20219;-88
2022/04/12 12:40:22;;;;;;;4.83;3.97;;;;;;;;;;4964852;28;20180;-88
2022/04/12 12:43:27;;;;;;;4.80;3.40;;;;;;;;;;4965017;28;20181;-88
2022/04/12 12:46:34;;;;;;;7.73;4.67;;;;;;;;;;4953795;28;20187;-88
2022/04/12 12:49:40;;;;;;;5.33;4.63;;;;;;;;;;4964681;28;20176;-88
2022/04/12 12:52:45;;;;;;;8.03;4.90;;;;;;;;;;4964563;28;20183;-87
2022/04/12 12:55:49;;;;;;;6.03;3.97;;;;;;;;;;4964550;28;20186;-88
2022/04/12 12:59:20;;;;;;;9.70;4.80;;;;;;;;;;4964496;28;20179;-88
2022/04/12 13:02:36;;;;;;;8.83;4.00;;;;;;;;;;4980519;23;20231;-84
2022/04/12 13:05:53;;;;;;;6.47;4.40;;;;;;;;;;4946701;29;20623;-83
2022/04/12 13:09:05;;;;;;;68.70;12.50;;;;;;;;;;4946773;29;20184;-83
2022/04/12 13:12:10;;;;;;;21.70;6.30;;;;;;;;;;4945924;29;20296;-85
2022/04/12 13:15:14;;;;;;;8.10;4.97;;;;;;;;;;4946855;29;20184;-84
2022/04/12 13:18:18;;;;;;;36.37;7.37;;;;;;;;;;4946761;29;20215;-83
2022/04/12 13:21:24;;;;;;;5.23;4.23;;;;;;;;;;4947460;28;20218;-83
2022/04/12 13:24:32;;;;;;;4.83;4.00;;;;;;;;;;4949492;29;20176;-85
2022/04/12 13:27:37;;;;;;;5.50;4.27;;;;;;;;;;4957037;28;20184;-82
2022/04/12 13:30:43;;;;;;;6.30;4.50;;;;;;;;;;4946164;28;20180;-85
2022/04/12 13:33:47;;;;;;;4.33;3.93;;;;;;;;;;4934593;29;20183;-86
2022/04/12 13:36:51;;;;;;;6.03;4.67;;;;;;;;;;4935221;29;20211;-86
2022/04/12 13:39:55;;;;;;;5.17;4.33;;;;;;;;;;4946241;29;20184;-82
2022/04/12 13:43:03;;;;;;;21.50;5.47;;;;;;;;;;4956968;29;20639;-86
2022/04/12 13:46:07;;;;;;;6.20;4.23;;;;;;;;;;4946480;28;20200;-85
2022/04/12 13:49:11;;;;;;;6.27;4.60;;;;;;;;;;4936207;29;20524;-86
2022/04/12 13:52:16;;;;;;;4.27;3.87;;;;;;;;;;4955903;28;20219;-87
2022/04/12 13:55:20;;;;;;;6.47;3.83;;;;;;;;;;4956408;29;20187;-86
2022/04/12 13:58:24;;;;;;;5.87;3.53;;;;;;;;;;4934872;29;20211;-87
2022/04/12 14:01:29;;;;;;;5.83;4.13;;;;;;;;;;4933980;29;20222;-86
2022/04/12 14:04:33;;;;;;;11.00;4.23;;;;;;;;;;4956173;29;20631;-87
2022/04/12 14:07:37;;;;;;;4.70;3.70;;;;;;;;;;4956054;28;20653;-86
2022/04/12 14:10:41;;;;;;;5.20;3.90;;;;;;;;;;4944314;29;20520;-87
2022/04/12 14:13:46;;;;;;;4.87;3.53;;;;;;;;;;4943448;29;20207;-86
2022/04/12 14:16:50;;;;;;;5.03;3.97;;;;;;;;;;4955292;29;20191;-87
2022/04/12 14:19:54;;;;;;;6.70;4.20;;;;;;;;;;4956025;28;20207;-86
2022/04/12 14:22:58;;;;;;;5.03;4.43;;;;;;;;;;4933243;29;20701;-86
2022/04/12 14:26:04;;;;;;;5.97;4.10;;;;;;;;;;4933312;29;20192;-87
2022/04/12 14:29:09;;;;;;;6.13;4.13;;;;;;;;;;4956257;29;20603;-87
2022/04/12 14:32:14;;;;;;;6.00;3.83;;;;;;;;;;4956276;28;20226;-87
2022/04/12 14:35:18;;;;;;;6.97;3.40;;;;;;;;;;4945989;29;20646;-87
2022/04/12 14:38:23;;;;;;;5.13;3.27;;;;;;;;;;4946686;29;20203;-85
2022/04/12 14:41:30;;;;;;;5.80;3.73;;;;;;;;;;4960705;28;20227;-86
2022/04/12 14:44:35;;;;;;;10.43;3.90;;;;;;;;;;4946194;29;20639;-86
2022/04/12 14:47:39;;;;;;;8.90;4.07;;;;;;;;;;4962484;29;20191;-85
2022/04/12 14:50:44;;;;;;;6.13;4.00;;;;;;;;;;4937869;29;20187;-87
2022/04/12 14:53:57;;;;;;;4.80;3.67;;;;;;;;;;4938029;29;20189;-86
2022/04/12 14:57:04;;;;;;;6.00;4.27;;;;;;;;;;4934340;29;20188;-87
2022/04/12 15:00:09;;;;;;;4.57;4.00;;;;;;;;;;4936855;29;20179;-85
2022/04/12 15:03:13;;;;;;;10.03;4.07;;;;;;;;;;4950663;29;20176;-86
2022/04/12 15:06:17;;;;;;;4.57;3.47;;;;;;;;;;4960727;29;20187;-84
2022/04/12 15:09:21;;;;;;;5.67;3.40;;;;;;;;;;4959948;29;20187;-85
2022/04/12 15:12:26;;;;;;;5.57;3.27;;;;;;;;;;4960425;28;20215;-86
2022/04/12 15:15:30;;;;;;;4.33;3.10;;;;;;;;;;4947269;29;20192;-86
2022/04/12 15:18:34;;;;;;;3.80;2.90;;;;;;;;;;4959701;29;20551;-86
2022/04/12 15:21:40;;;;;;;6.30;3.10;;;;;;;;;;4947651;29;20563;-86
2022/04/12 15:24:44;;;;;;;5.73;3.47;;;;;;;;;;4958115;28;20540;-86
2022/04/12 15:27:49;;;;;;;3.53;2.97;;;;;;;;;;4936864;29;20188;-85
2022/04/12 15:30:53;;;;;;;7.10;3.40;;;;;;;;;;4935997;29;20188;-85
2022/04/12 15:33:58;;;;;;;4.37;3.20;;;;;;;;;;4937867;29;20175;-85
2022/04/12 15:37:02;;;;;;;4.40;2.93;;;;;;;;;;4938668;29;20184;-85
2022/04/12 15:40:08;;;;;;;4.90;3.03;;;;;;;;;;4947476;29;20195;-85
2022/04/12 15:43:13;;;;;;;13.83;3.40;;;;;;;;;;4947243;29;20191;-85
2022/04/12 15:46:19;;;;;;;5.30;2.87;;;;;;;;;;4958565;29;20199;-86
2022/04/12 15:49:24;;;;;;;6.30;2.80;;;;;;;;;;4947754;29;20183;-85
2022/04/12 15:52:28;;;;;;;6.00;2.60;;;;;;;;;;4946340;29;20219;-85
2022/04/12 15:55:33;;;;;;;5.50;2.80;;;;;;;;;;4948917;29;20544;-85
2022/04/12 15:58:37;;;;;;;4.67;2.80;;;;;;;;;;4959679;28;20215;-86
2022/04/12 16:01:41;;;;;;;5.50;2.63;;;;;;;;;;4958068;28;20227;-85
2022/04/12 16:04:45;;;;;;;8.30;2.63;;;;;;;;;;4957668;29;20540;-86
2022/04/12 16:07:52;;;;;;;3.87;2.30;;;;;;;;;;4947910;29;20654;-85
2022/04/12 16:10:56;;;;;;;3.90;2.03;;;;;;;;;;4959664;28;20220;-86
2022/04/12 16:14:00;;;;;;;2.50;1.87;;;;;;;;;;4958318;29;20187;-87
2022/04/12 16:17:07;;;;;;;7.33;2.20;;;;;;;;;;4937281;29;20207;-86
2022/04/12 16:20:11;;;;;;;2.27;1.73;;;;;;;;;;4947515;29;20544;-85
2022/04/12 16:23:15;;;;;;;3.87;2.00;;;;;;;;;;4959415;29;20666;-86
2022/04/12 16:26:20;;;;;;;5.50;2.13;;;;;;;;;;4947716;29;20195;-86
2022/04/12 16:29:25;;;;;;;9.53;2.33;;;;;;;;;;4958283;29;20528;-86
2022/04/12 16:32:29;;;;;;;3.77;1.97;;;;;;;;;;4934788;29;20219;-86
2022/04/12 16:35:33;;;;;;;3.50;1.60;;;;;;;;;;4946227;29;20199;-85
2022/04/12 16:38:37;;;;;;;3.03;1.50;;;;;;;;;;4934842;29;20702;-86
2022/04/12 16:41:41;;;;;;;2.80;1.90;;;;;;;;;;4957186;28;20214;-87
2022/04/12 16:44:45;;;;;;;4.63;2.20;;;;;;;;;;4934927;29;20187;-86
2022/04/12 16:47:50;;;;;;;3.20;1.70;;;;;;;;;;4935203;29;20184;-86
2022/04/12 16:50:54;;;;;;;6.50;1.40;;;;;;;;;;4929863;29;20222;-86
2022/04/12 16:53:58;;;;;;;4.77;1.43;;;;;;;;;;4935235;29;20195;-85
2022/04/12 16:57:02;;;;;;;2.97;1.63;;;;;;;;;;4958155;28;20191;-85
2022/04/12 17:00:09;;;;;;;4.17;1.90;;;;;;;;;;4946610;29;20196;-85
2022/04/12 17:03:12;;;;;;;3.80;1.90;;;;;;;;;;4974978;28;20187;-85
2022/04/12 17:06:17;;;;;;;12.87;3.20;;;;;;;;;;4977115;28;20206;-85
2022/04/12 17:09:21;;;;;;;4.47;2.00;;;;;;;;;;4976905;28;20563;-85
2022/04/12 17:12:25;;;;;;;4.60;1.50;;;;;;;;;;4963487;28;20219;-85
2022/04/12 17:15:29;;;;;;;3.83;1.47;;;;;;;;;;4947209;29;20179;-85
2022/04/12 17:18:34;;;;;;;2.60;1.30;;;;;;;;;;4948047;29;20211;-85
2022/04/12 17:21:38;;;;;;;2.77;1.60;;;;;;;;;;4947018;29;20227;-85
2022/04/12 17:24:42;;;;;;;2.57;1.30;;;;;;;;;;4958397;29;20187;-85
2022/04/12 17:27:46;;;;;;;2.03;1.20;;;;;;;;;;4957818;28;20175;-84
2022/04/12 17:30:51;;;;;;;4.53;1.40;;;;;;;;;;4958009;28;20179;-86
2022/04/12 17:33:56;;;;;;;3.67;1.50;;;;;;;;;;4945756;29;20188;-86
2022/04/12 17:37:00;;;;;;;1.80;1.27;;;;;;;;;;4937817;29;20185;-86
2022/04/12 17:40:04;;;;;;;4.10;1.30;;;;;;;;;;4946744;29;20679;-86
2022/04/12 17:43:09;;;;;;;2.10;1.17;;;;;;;;;;4947935;29;20181;-86
2022/04/12 17:46:13;;;;;;;2.07;1.20;;;;;;;;;;4948035;29;20188;-86
2022/04/12 17:49:17;;;;;;;3.10;1.50;;;;;;;;;;4959634;28;20191;-86
2022/04/12 17:52:21;;;;;;;3.10;1.43;;;;;;;;;;4934647;29;20226;-86
2022/04/12 17:55:26;;;;;;;2.10;1.27;;;;;;;;;;4956087;29;20179;-86
2022/04/12 17:58:30;;;;;;;3.90;1.40;;;;;;;;;;4934250;29;20207;-85
2022/04/12 18:01:34;;;;;;;2.30;1.40;;;;;;;;;;4956074;28;20231;-86
2022/04/12 18:04:38;;;;;;;15.77;1.83;;;;;;;;;;4956568;28;20199;-86
2022/04/12 18:07:42;;;;;;;6.00;1.40;;;;;;;;;;4946135;29;20195;-85
2022/04/12 18:10:46;;;;;;;4.83;1.20;;;;;;;;;;4945455;29;20195;-85
2022/04/12 18:13:50;;;;;;;1.77;1.13;;;;;;;;;;4934011;28;20669;-86
2022/04/12 18:16:54;;;;;;;4.70;1.30;;;;;;;;;;4955802;29;20207;-85
2022/04/12 18:19:59;;;;;;;2.40;1.03;;;;;;;;;;4933667;29;20219;-85
2022/04/12 18:23:03;;;;;;;3.10;1.23;;;;;;;;;;4933844;29;20532;-85
2022/04/12 18:26:08;;;;;;;2.73;1.17;;;;;;;;;;4944274;29;20191;-85
2022/04/12 18:29:12;;;;;;;2.50;1.30;;;;;;;;;;4944420;29;20188;-85